sensor_id;sensor_type;location;lat;lon;timestamp;pressure;altitude;pressure_sealevel;temperature;humidity
39455;BME280;25155;41.890;23.446;2023-02-23T00:00:23;91791.41;;;1.93;47.42
39455;BME280;25155;41.890;23.446;2023-02-23T00:02:53;91787.47;;;1.91;47.15
39455;BME280;25155;41.890;23.446;2023-02-23T00:05:23;91791.06;;;1.90;47.21
39455;BME280;25155;41.890;23.446;2023-02-23T00:07:50;91792.88;;;1.89;47.54
39455;BME280;25155;41.890;23.446;2023-02-23T00:10:18;91782.38;;;1.79;48.65
39455;BME280;25155;41.890;23.446;2023-02-23T00:12:49;91789.00;;;1.75;48.11
39455;BME280;25155;41.890;23.446;2023-02-23T00:15:16;91787.66;;;1.72;48.18
39455;BME280;25155;41.890;23.446;2023-02-23T00:17:43;91786.91;;;1.72;48.01
39455;BME280;25155;41.890;23.446;2023-02-23T00:20:12;91789.47;;;1.72;47.70
39455;BME280;25155;41.890;23.446;2023-02-23T00:22:41;91793.28;;;1.69;47.85
39455;BME280;25155;41.890;23.446;2023-02-23T00:25:08;91796.09;;;1.68;47.74
39455;BME280;25155;41.890;23.446;2023-02-23T00:27:37;91790.63;;;1.64;48.15
39455;BME280;25155;41.890;23.446;2023-02-23T00:30:09;91794.78;;;1.65;47.52
39455;BME280;25155;41.890;23.446;2023-02-23T00:32:37;91788.16;;;1.57;47.57
39455;BME280;25155;41.890;23.446;2023-02-23T00:35:04;91783.69;;;1.53;47.60
39455;BME280;25155;41.890;23.446;2023-02-23T00:37:35;91790.09;;;1.50;47.61
39455;BME280;25155;41.890;23.446;2023-02-23T00:40:04;91787.97;;;1.47;47.69
39455;BME280;25155;41.890;23.446;2023-02-23T00:42:32;91787.41;;;1.45;47.64
39455;BME280;25155;41.890;23.446;2023-02-23T00:45:01;91785.28;;;1.42;47.39
39455;BME280;25155;41.890;23.446;2023-02-23T00:47:37;91784.38;;;1.36;48.86
39455;BME280;25155;41.890;23.446;2023-02-23T00:50:04;91783.53;;;1.31;48.69
39455;BME280;25155;41.890;23.446;2023-02-23T00:52:31;91785.19;;;1.25;49.36
39455;BME280;25155;41.890;23.446;2023-02-23T00:54:58;91786.13;;;1.19;49.17
39455;BME280;25155;41.890;23.446;2023-02-23T00:57:25;91778.38;;;1.19;48.94
39455;BME280;25155;41.890;23.446;2023-02-23T00:59:52;91782.75;;;1.18;49.05
39455;BME280;25155;41.890;23.446;2023-02-23T01:02:20;91784.00;;;1.16;49.16
39455;BME280;25155;41.890;23.446;2023-02-23T01:04:47;91778.50;;;1.12;48.80
39455;BME280;25155;41.890;23.446;2023-02-23T01:07:14;91780.50;;;1.10;48.57
39455;BME280;25155;41.890;23.446;2023-02-23T01:09:41;91784.13;;;1.09;48.54
39455;BME280;25155;41.890;23.446;2023-02-23T01:12:08;91786.13;;;1.07;48.51
39455;BME280;25155;41.890;23.446;2023-02-23T01:14:35;91775.78;;;1.07;48.51
39455;BME280;25155;41.890;23.446;2023-02-23T01:17:03;91782.22;;;1.04;48.67
39455;BME280;25155;41.890;23.446;2023-02-23T01:19:31;91775.91;;;1.00;49.06
39455;BME280;25155;41.890;23.446;2023-02-23T01:21:59;91780.75;;;0.97;49.11
39455;BME280;25155;41.890;23.446;2023-02-23T01:24:27;91772.44;;;0.95;48.81
39455;BME280;25155;41.890;23.446;2023-02-23T01:26:54;91785.56;;;0.93;49.37
39455;BME280;25155;41.890;23.446;2023-02-23T01:29:21;91772.25;;;0.84;49.80
39455;BME280;25155;41.890;23.446;2023-02-23T01:31:48;91769.22;;;0.76;50.20
39455;BME280;25155;41.890;23.446;2023-02-23T01:34:16;91770.88;;;0.70;49.75
39455;BME280;25155;41.890;23.446;2023-02-23T01:36:44;91776.50;;;0.67;49.75
39455;BME280;25155;41.890;23.446;2023-02-23T01:39:12;91777.97;;;0.63;49.65
39455;BME280;25155;41.890;23.446;2023-02-23T01:41:39;91770.66;;;0.60;49.39
39455;BME280;25155;41.890;23.446;2023-02-23T01:44:57;91778.41;;;0.60;49.43
39455;BME280;25155;41.890;23.446;2023-02-23T01:46:55;91775.28;;;0.58;49.57
39455;BME280;25155;41.890;23.446;2023-02-23T01:49:24;91772.69;;;0.58;49.33
39455;BME280;25155;41.890;23.446;2023-02-23T01:51:53;91767.53;;;0.58;49.05
39455;BME280;25155;41.890;23.446;2023-02-23T01:54:26;91776.50;;;0.55;49.76
39455;BME280;25155;41.890;23.446;2023-02-23T01:56:55;91757.88;;;0.53;50.41
39455;BME280;25155;41.890;23.446;2023-02-23T01:59:24;91770.22;;;0.51;49.87
39455;BME280;25155;41.890;23.446;2023-02-23T02:01:53;91769.31;;;0.45;50.90
39455;BME280;25155;41.890;23.446;2023-02-23T02:04:21;91767.59;;;0.39;51.63
39455;BME280;25155;41.890;23.446;2023-02-23T02:06:50;91765.13;;;0.32;51.25
39455;BME280;25155;41.890;23.446;2023-02-23T02:09:21;91764.81;;;0.29;50.80
39455;BME280;25155;41.890;23.446;2023-02-23T02:11:52;91765.25;;;0.26;50.35
39455;BME280;25155;41.890;23.446;2023-02-23T02:14:20;91762.31;;;0.22;50.48
39455;BME280;25155;41.890;23.446;2023-02-23T02:17:09;91768.50;;;0.21;50.37
39455;BME280;25155;41.890;23.446;2023-02-23T02:22:42;91764.56;;;0.19;50.13
39455;BME280;25155;41.890;23.446;2023-02-23T02:25:30;91771.75;;;0.17;50.15
39455;BME280;25155;41.890;23.446;2023-02-23T02:30:49;91772.63;;;0.10;49.86
39455;BME280;25155;41.890;23.446;2023-02-23T02:33:24;91768.69;;;0.08;49.98
39455;BME280;25155;41.890;23.446;2023-02-23T02:38:47;91765.19;;;0.02;49.82
39455;BME280;25155;41.890;23.446;2023-02-23T02:41:19;91770.00;;;-0.01;49.71
39455;BME280;25155;41.890;23.446;2023-02-23T02:43:54;91771.22;;;-0.04;49.93
39455;BME280;25155;41.890;23.446;2023-02-23T02:46:24;91763.16;;;-0.08;49.81
39455;BME280;25155;41.890;23.446;2023-02-23T02:48:53;91767.75;;;-0.10;49.67
39455;BME280;25155;41.890;23.446;2023-02-23T02:51:24;91771.75;;;-0.14;49.69
39455;BME280;25155;41.890;23.446;2023-02-23T02:53:56;91769.84;;;-0.18;49.83
39455;BME280;25155;41.890;23.446;2023-02-23T02:56:32;91769.28;;;-0.20;49.99
39455;BME280;25155;41.890;23.446;2023-02-23T02:59:04;91772.88;;;-0.21;50.51
39455;BME280;25155;41.890;23.446;2023-02-23T03:01:46;91768.59;;;-0.28;51.15
39455;BME280;25155;41.890;23.446;2023-02-23T03:04:30;91782.44;;;-0.29;50.68
39455;BME280;25155;41.890;23.446;2023-02-23T03:07:15;91772.84;;;-0.33;50.88
39455;BME280;25155;41.890;23.446;2023-02-23T03:10:06;91774.03;;;-0.36;50.88
39455;BME280;25155;41.890;23.446;2023-02-23T03:12:54;91781.97;;;-0.37;51.19
39455;BME280;25155;41.890;23.446;2023-02-23T03:15:43;91774.47;;;-0.39;50.92
39455;BME280;25155;41.890;23.446;2023-02-23T03:18:35;91767.97;;;-0.42;50.64
39455;BME280;25155;41.890;23.446;2023-02-23T03:21:24;91777.69;;;-0.44;50.85
39455;BME280;25155;41.890;23.446;2023-02-23T03:24:10;91772.78;;;-0.45;50.94
39455;BME280;25155;41.890;23.446;2023-02-23T03:27:00;91771.19;;;-0.46;50.76
39455;BME280;25155;41.890;23.446;2023-02-23T03:29:50;91776.56;;;-0.48;51.22
39455;BME280;25155;41.890;23.446;2023-02-23T03:32:39;91782.91;;;-0.50;50.97
39455;BME280;25155;41.890;23.446;2023-02-23T03:35:28;91777.44;;;-0.54;51.05
39455;BME280;25155;41.890;23.446;2023-02-23T03:38:15;91781.25;;;-0.56;50.85
39455;BME280;25155;41.890;23.446;2023-02-23T03:41:00;91780.66;;;-0.58;50.88
39455;BME280;25155;41.890;23.446;2023-02-23T03:43:47;91779.88;;;-0.59;50.84
39455;BME280;25155;41.890;23.446;2023-02-23T03:46:32;91781.88;;;-0.61;50.69
39455;BME280;25155;41.890;23.446;2023-02-23T03:49:17;91781.53;;;-0.65;50.56
39455;BME280;25155;41.890;23.446;2023-02-23T03:52:04;91787.88;;;-0.67;51.54
39455;BME280;25155;41.890;23.446;2023-02-23T03:54:52;91787.81;;;-0.79;51.60
39455;BME280;25155;41.890;23.446;2023-02-23T03:57:38;91785.88;;;-0.84;51.51
39455;BME280;25155;41.890;23.446;2023-02-23T04:00:26;91790.91;;;-0.89;51.50
39455;BME280;25155;41.890;23.446;2023-02-23T04:03:13;91800.28;;;-0.94;51.86
39455;BME280;25155;41.890;23.446;2023-02-23T04:05:59;91792.63;;;-1.01;52.02
39455;BME280;25155;41.890;23.446;2023-02-23T04:08:43;91789.31;;;-1.08;52.33
39455;BME280;25155;41.890;23.446;2023-02-23T04:11:29;91789.91;;;-1.06;52.57
39455;BME280;25155;41.890;23.446;2023-02-23T04:14:17;91789.59;;;-1.17;53.11
39455;BME280;25155;41.890;23.446;2023-02-23T04:16:46;91795.19;;;-1.20;52.96
39455;BME280;25155;41.890;23.446;2023-02-23T04:19:12;91791.03;;;-1.21;53.12
39455;BME280;25155;41.890;23.446;2023-02-23T04:21:39;91800.94;;;-1.24;53.97
39455;BME280;25155;41.890;23.446;2023-02-23T04:24:05;91798.38;;;-1.24;53.67
39455;BME280;25155;41.890;23.446;2023-02-23T04:26:32;91802.72;;;-1.25;53.87
39455;BME280;25155;41.890;23.446;2023-02-23T04:28:59;91798.59;;;-1.26;53.89
39455;BME280;25155;41.890;23.446;2023-02-23T04:31:27;91796.78;;;-1.25;54.07
39455;BME280;25155;41.890;23.446;2023-02-23T04:33:55;91795.22;;;-1.26;53.99
39455;BME280;25155;41.890;23.446;2023-02-23T04:36:22;91795.22;;;-1.26;53.85
39455;BME280;25155;41.890;23.446;2023-02-23T04:38:51;91801.94;;;-1.25;53.67
39455;BME280;25155;41.890;23.446;2023-02-23T04:41:17;91794.00;;;-1.24;53.88
39455;BME280;25155;41.890;23.446;2023-02-23T04:43:44;91788.88;;;-1.24;53.95
39455;BME280;25155;41.890;23.446;2023-02-23T04:46:11;91794.78;;;-1.23;54.05
39455;BME280;25155;41.890;23.446;2023-02-23T04:48:38;91799.94;;;-1.23;53.82
39455;BME280;25155;41.890;23.446;2023-02-23T04:51:07;91795.81;;;-1.24;53.91
39455;BME280;25155;41.890;23.446;2023-02-23T04:53:33;91789.88;;;-1.25;53.92
39455;BME280;25155;41.890;23.446;2023-02-23T04:56:00;91797.56;;;-1.25;53.76
39455;BME280;25155;41.890;23.446;2023-02-23T04:58:28;91795.22;;;-1.26;53.75
39455;BME280;25155;41.890;23.446;2023-02-23T05:00:56;91798.81;;;-1.27;53.77
39455;BME280;25155;41.890;23.446;2023-02-23T05:03:29;91796.22;;;-1.27;53.45
39455;BME280;25155;41.890;23.446;2023-02-23T05:05:56;91801.38;;;-1.27;53.37
39455;BME280;25155;41.890;23.446;2023-02-23T05:08:24;91795.22;;;-1.26;53.45
39455;BME280;25155;41.890;23.446;2023-02-23T05:10:51;91797.78;;;-1.26;53.28
39455;BME280;25155;41.890;23.446;2023-02-23T05:13:18;91800.34;;;-1.26;53.30
39455;BME280;25155;41.890;23.446;2023-02-23T05:15:45;91804.72;;;-1.27;53.26
39455;BME280;25155;41.890;23.446;2023-02-23T05:18:11;91805.34;;;-1.31;53.31
39455;BME280;25155;41.890;23.446;2023-02-23T05:20:41;91806.94;;;-1.30;54.08
39455;BME280;25155;41.890;23.446;2023-02-23T05:23:09;91806.63;;;-1.41;53.98
39455;BME280;25155;41.890;23.446;2023-02-23T05:25:38;91806.47;;;-1.46;54.04
39455;BME280;25155;41.890;23.446;2023-02-23T05:28:04;91811.63;;;-1.46;54.08
39455;BME280;25155;41.890;23.446;2023-02-23T05:30:31;91808.09;;;-1.52;54.36
39455;BME280;25155;41.890;23.446;2023-02-23T05:32:58;91813.50;;;-1.60;55.94
39455;BME280;25155;41.890;23.446;2023-02-23T05:35:25;91817.28;;;-1.62;56.24
39455;BME280;25155;41.890;23.446;2023-02-23T05:37:52;91818.06;;;-1.62;55.71
39455;BME280;25155;41.890;23.446;2023-02-23T05:40:19;91827.16;;;-1.59;55.40
39455;BME280;25155;41.890;23.446;2023-02-23T05:42:47;91818.00;;;-1.55;55.19
39455;BME280;25155;41.890;23.446;2023-02-23T05:45:14;91825.09;;;-1.50;55.09
39455;BME280;25155;41.890;23.446;2023-02-23T05:47:41;91831.19;;;-1.45;55.09
39455;BME280;25155;41.890;23.446;2023-02-23T05:50:09;91836.47;;;-1.40;54.63
39455;BME280;25155;41.890;23.446;2023-02-23T05:52:37;91837.63;;;-1.36;54.92
39455;BME280;25155;41.890;23.446;2023-02-23T05:55:06;91841.94;;;-1.29;54.85
39455;BME280;25155;41.890;23.446;2023-02-23T05:57:33;91845.88;;;-1.27;55.03
39455;BME280;25155;41.890;23.446;2023-02-23T06:00:02;91849.81;;;-1.24;55.77
39455;BME280;25155;41.890;23.446;2023-02-23T06:02:29;91843.03;;;-1.19;56.01
39455;BME280;25155;41.890;23.446;2023-02-23T06:04:55;91853.66;;;-1.15;56.16
39455;BME280;25155;41.890;23.446;2023-02-23T06:07:22;91849.69;;;-1.11;56.24
39455;BME280;25155;41.890;23.446;2023-02-23T06:09:49;91860.69;;;-1.04;56.69
39455;BME280;25155;41.890;23.446;2023-02-23T06:12:16;91856.50;;;-0.98;56.60
39455;BME280;25155;41.890;23.446;2023-02-23T06:14:43;91854.44;;;-0.89;56.48
39455;BME280;25155;41.890;23.446;2023-02-23T06:17:11;91858.28;;;-0.80;56.83
39455;BME280;25155;41.890;23.446;2023-02-23T06:19:38;91858.47;;;-0.75;56.72
39455;BME280;25155;41.890;23.446;2023-02-23T06:22:05;91863.63;;;-0.75;57.90
39455;BME280;25155;41.890;23.446;2023-02-23T06:24:33;91857.22;;;-0.72;57.36
39455;BME280;25155;41.890;23.446;2023-02-23T06:27:00;91862.88;;;-0.64;57.39
39455;BME280;25155;41.890;23.446;2023-02-23T06:29:26;91868.34;;;-0.53;57.43
39455;BME280;25155;41.890;23.446;2023-02-23T06:31:53;91864.88;;;-0.47;57.51
39455;BME280;25155;41.890;23.446;2023-02-23T06:34:21;91866.19;;;-0.38;57.41
39455;BME280;25155;41.890;23.446;2023-02-23T06:55:58;91872.91;;;1.84;53.53
39455;BME280;25155;41.890;23.446;2023-02-23T06:58:26;91858.75;;;1.75;54.35
39455;BME280;25155;41.890;23.446;2023-02-23T07:00:54;91869.09;;;1.75;54.08
39455;BME280;25155;41.890;23.446;2023-02-23T07:03:23;91854.06;;;1.72;54.56
39455;BME280;25155;41.890;23.446;2023-02-23T07:05:50;91863.91;;;1.75;55.37
39455;BME280;25155;41.890;23.446;2023-02-23T07:08:18;91860.56;;;1.74;55.20
39455;BME280;25155;41.890;23.446;2023-02-23T07:10:45;91857.41;;;1.84;55.67
39455;BME280;25155;41.890;23.446;2023-02-23T07:13:14;91861.19;;;1.93;55.44
39455;BME280;25155;41.890;23.446;2023-02-23T07:19:03;91859.34;;;2.06;55.82
39455;BME280;25155;41.890;23.446;2023-02-23T07:21:32;91858.53;;;2.17;55.49
39455;BME280;25155;41.890;23.446;2023-02-23T07:24:00;91859.25;;;2.29;55.66
39455;BME280;25155;41.890;23.446;2023-02-23T07:26:29;91850.66;;;2.41;55.87
39455;BME280;25155;41.890;23.446;2023-02-23T07:28:58;91855.44;;;2.49;55.69
39455;BME280;25155;41.890;23.446;2023-02-23T07:31:26;91849.34;;;2.55;55.88
39455;BME280;25155;41.890;23.446;2023-02-23T07:33:54;91849.28;;;2.67;56.18
39455;BME280;25155;41.890;23.446;2023-02-23T07:36:22;91845.59;;;2.80;55.47
39455;BME280;25155;41.890;23.446;2023-02-23T07:38:49;91851.47;;;2.92;55.34
39455;BME280;25155;41.890;23.446;2023-02-23T07:41:17;91838.47;;;3.04;54.66
39455;BME280;25155;41.890;23.446;2023-02-23T07:43:44;91845.69;;;3.19;54.71
39455;BME280;25155;41.890;23.446;2023-02-23T07:46:13;91853.38;;;3.31;54.64
39455;BME280;25155;41.890;23.446;2023-02-23T07:48:42;91844.53;;;3.49;54.35
39455;BME280;25155;41.890;23.446;2023-02-23T07:51:12;91844.03;;;3.69;54.13
39455;BME280;25155;41.890;23.446;2023-02-23T07:53:40;91837.72;;;3.87;53.63
39455;BME280;25155;41.890;23.446;2023-02-23T07:56:09;91829.00;;;3.93;53.18
39455;BME280;25155;41.890;23.446;2023-02-23T07:58:36;91831.75;;;4.08;52.83
39455;BME280;25155;41.890;23.446;2023-02-23T08:01:04;91830.88;;;4.25;52.57
39455;BME280;25155;41.890;23.446;2023-02-23T08:03:33;91820.66;;;4.40;52.13
39455;BME280;25155;41.890;23.446;2023-02-23T08:06:01;91823.88;;;4.52;51.57
39455;BME280;25155;41.890;23.446;2023-02-23T08:08:28;91819.56;;;4.63;51.64
39455;BME280;25155;41.890;23.446;2023-02-23T08:10:59;91816.81;;;4.75;51.60
39455;BME280;25155;41.890;23.446;2023-02-23T08:13:26;91818.81;;;5.00;51.45
39455;BME280;25155;41.890;23.446;2023-02-23T08:15:53;91819.97;;;5.20;51.48
39455;BME280;25155;41.890;23.446;2023-02-23T08:18:21;91819.03;;;5.36;50.23
39455;BME280;25155;41.890;23.446;2023-02-23T08:20:49;91812.38;;;5.50;50.65
39455;BME280;25155;41.890;23.446;2023-02-23T08:23:16;91812.22;;;5.67;49.68
39455;BME280;25155;41.890;23.446;2023-02-23T08:25:44;91812.00;;;5.79;49.87
39455;BME280;25155;41.890;23.446;2023-02-23T08:28:11;91808.16;;;5.97;49.79
39455;BME280;25155;41.890;23.446;2023-02-23T08:30:40;91806.09;;;6.10;48.90
39455;BME280;25155;41.890;23.446;2023-02-23T08:33:07;91811.34;;;6.25;49.04
39455;BME280;25155;41.890;23.446;2023-02-23T08:35:35;91812.16;;;6.41;48.21
39455;BME280;25155;41.890;23.446;2023-02-23T08:38:03;91805.41;;;6.50;47.36
39455;BME280;25155;41.890;23.446;2023-02-23T08:40:30;91810.38;;;6.57;47.18
39455;BME280;25155;41.890;23.446;2023-02-23T08:42:58;91806.19;;;6.61;46.86
39455;BME280;25155;41.890;23.446;2023-02-23T08:45:25;91799.94;;;6.72;46.68
39455;BME280;25155;41.890;23.446;2023-02-23T08:47:53;91800.50;;;6.85;46.45
39455;BME280;25155;41.890;23.446;2023-02-23T08:50:21;91803.59;;;6.97;46.00
39455;BME280;25155;41.890;23.446;2023-02-23T08:52:48;91808.81;;;7.07;45.51
39455;BME280;25155;41.890;23.446;2023-02-23T08:55:17;91802.03;;;7.16;45.71
39455;BME280;25155;41.890;23.446;2023-02-23T08:57:45;91801.00;;;7.33;44.85
39455;BME280;25155;41.890;23.446;2023-02-23T09:00:13;91800.69;;;7.45;44.56
39455;BME280;25155;41.890;23.446;2023-02-23T09:02:42;91799.91;;;7.55;44.20
39455;BME280;25155;41.890;23.446;2023-02-23T09:05:10;91797.75;;;7.67;44.70
39455;BME280;25155;41.890;23.446;2023-02-23T09:07:38;91794.09;;;7.73;44.54
39455;BME280;25155;41.890;23.446;2023-02-23T09:10:09;91790.66;;;7.83;43.64
39455;BME280;25155;41.890;23.446;2023-02-23T09:12:39;91787.78;;;7.89;43.84
39455;BME280;25155;41.890;23.446;2023-02-23T09:15:07;91785.31;;;8.08;43.86
39455;BME280;25155;41.890;23.446;2023-02-23T09:17:34;91788.13;;;8.27;44.14
39455;BME280;25155;41.890;23.446;2023-02-23T09:20:02;91788.00;;;8.43;43.49
39455;BME280;25155;41.890;23.446;2023-02-23T09:22:30;91787.41;;;8.56;43.34
39455;BME280;25155;41.890;23.446;2023-02-23T09:24:59;91779.97;;;8.74;42.73
39455;BME280;25155;41.890;23.446;2023-02-23T09:27:26;91780.88;;;8.88;42.73
39455;BME280;25155;41.890;23.446;2023-02-23T09:29:55;91776.41;;;8.99;41.80
39455;BME280;25155;41.890;23.446;2023-02-23T09:32:22;91775.00;;;9.12;41.45
39455;BME280;25155;41.890;23.446;2023-02-23T09:34:49;91779.78;;;9.29;41.28
39455;BME280;25155;41.890;23.446;2023-02-23T09:37:17;91775.75;;;9.42;40.39
39455;BME280;25155;41.890;23.446;2023-02-23T09:39:44;91767.78;;;9.52;40.21
39455;BME280;25155;41.890;23.446;2023-02-23T09:42:22;91771.38;;;9.61;40.51
39455;BME280;25155;41.890;23.446;2023-02-23T09:45:03;91772.47;;;9.79;39.53
39455;BME280;25155;41.890;23.446;2023-02-23T09:47:36;91759.97;;;9.95;39.12
39455;BME280;25155;41.890;23.446;2023-02-23T09:50:13;91757.75;;;10.07;39.88
39455;BME280;25155;41.890;23.446;2023-02-23T09:52:47;91760.16;;;10.23;39.73
39455;BME280;25155;41.890;23.446;2023-02-23T09:55:15;91760.44;;;10.40;39.83
39455;BME280;25155;41.890;23.446;2023-02-23T09:57:44;91757.34;;;10.57;38.57
39455;BME280;25155;41.890;23.446;2023-02-23T10:00:18;91753.81;;;10.67;38.06
39455;BME280;25155;41.890;23.446;2023-02-23T10:02:58;91751.50;;;10.79;37.89
39455;BME280;25155;41.890;23.446;2023-02-23T10:05:27;91748.63;;;10.95;38.33
39455;BME280;25155;41.890;23.446;2023-02-23T10:08:02;91745.06;;;11.05;37.72
39455;BME280;25155;41.890;23.446;2023-02-23T10:10:38;91749.28;;;11.19;37.52
39455;BME280;25155;41.890;23.446;2023-02-23T10:13:14;91741.91;;;11.35;37.32
39455;BME280;25155;41.890;23.446;2023-02-23T10:15:51;91742.91;;;11.53;37.40
39455;BME280;25155;41.890;23.446;2023-02-23T10:18:25;91736.13;;;11.66;37.02
39455;BME280;25155;41.890;23.446;2023-02-23T10:21:01;91730.59;;;11.82;36.15
39455;BME280;25155;41.890;23.446;2023-02-23T10:23:32;91726.97;;;11.91;35.81
39455;BME280;25155;41.890;23.446;2023-02-23T10:26:01;91720.75;;;12.01;35.95
39455;BME280;25155;41.890;23.446;2023-02-23T10:28:33;91721.31;;;12.12;35.39
39455;BME280;25155;41.890;23.446;2023-02-23T10:31:02;91716.97;;;11.93;35.34
39455;BME280;25155;41.890;23.446;2023-02-23T10:33:36;91705.53;;;12.26;35.86
39455;BME280;25155;41.890;23.446;2023-02-23T10:36:08;91711.56;;;12.12;34.65
39455;BME280;25155;41.890;23.446;2023-02-23T10:38:38;91702.53;;;12.41;36.02
39455;BME280;25155;41.890;23.446;2023-02-23T10:41:06;91700.53;;;12.61;34.95
39455;BME280;25155;41.890;23.446;2023-02-23T10:43:34;91689.47;;;12.73;33.64
39455;BME280;25155;41.890;23.446;2023-02-23T10:46:04;91684.47;;;12.85;34.83
39455;BME280;25155;41.890;23.446;2023-02-23T10:48:36;91684.19;;;12.95;34.01
39455;BME280;25155;41.890;23.446;2023-02-23T10:51:14;91683.97;;;13.05;34.30
39455;BME280;25155;41.890;23.446;2023-02-23T10:53:43;91677.41;;;13.26;35.38
39455;BME280;25155;41.890;23.446;2023-02-23T10:56:12;91677.28;;;13.39;34.18
39455;BME280;25155;41.890;23.446;2023-02-23T10:58:40;91672.34;;;13.47;34.05
39455;BME280;25155;41.890;23.446;2023-02-23T11:01:13;91668.22;;;13.54;34.02
39455;BME280;25155;41.890;23.446;2023-02-23T11:03:44;91665.13;;;13.70;34.43
39455;BME280;25155;41.890;23.446;2023-02-23T11:06:33;91661.31;;;13.85;34.64
39455;BME280;25155;41.890;23.446;2023-02-23T11:09:21;91657.66;;;14.03;33.61
39455;BME280;25155;41.890;23.446;2023-02-23T11:11:56;91658.28;;;14.18;33.10
39455;BME280;25155;41.890;23.446;2023-02-23T11:14:25;91649.13;;;14.32;32.76
39455;BME280;25155;41.890;23.446;2023-02-23T11:16:56;91645.56;;;14.37;32.04
39455;BME280;25155;41.890;23.446;2023-02-23T11:19:26;91640.00;;;14.30;30.81
39455;BME280;25155;41.890;23.446;2023-02-23T11:21:56;91647.13;;;14.38;32.66
39455;BME280;25155;41.890;23.446;2023-02-23T11:24:25;91640.75;;;14.48;31.82
39455;BME280;25155;41.890;23.446;2023-02-23T11:26:56;91645.84;;;14.62;31.93
39455;BME280;25155;41.890;23.446;2023-02-23T11:29:28;91637.59;;;14.72;31.84
39455;BME280;25155;41.890;23.446;2023-02-23T11:32:05;91638.84;;;14.83;32.87
39455;BME280;25155;41.890;23.446;2023-02-23T11:34:35;91628.28;;;14.92;31.03
39455;BME280;25155;41.890;23.446;2023-02-23T11:37:18;91625.81;;;14.78;31.03
39455;BME280;25155;41.890;23.446;2023-02-23T11:39:51;91627.69;;;14.78;31.42
39455;BME280;25155;41.890;23.446;2023-02-23T11:42:20;91619.16;;;14.89;31.54
39455;BME280;25155;41.890;23.446;2023-02-23T11:45:01;91623.63;;;14.98;31.59
39455;BME280;25155;41.890;23.446;2023-02-23T11:47:31;91622.50;;;14.99;31.01
39455;BME280;25155;41.890;23.446;2023-02-23T11:50:00;91618.63;;;15.05;31.52
39455;BME280;25155;41.890;23.446;2023-02-23T11:52:29;91613.63;;;15.12;31.45
39455;BME280;25155;41.890;23.446;2023-02-23T11:54:58;91620.16;;;15.15;30.88
39455;BME280;25155;41.890;23.446;2023-02-23T11:57:28;91615.31;;;15.25;32.11
39455;BME280;25155;41.890;23.446;2023-02-23T11:59:56;91601.28;;;15.34;30.93
39455;BME280;25155;41.890;23.446;2023-02-23T12:02:27;91605.91;;;15.37;31.04
39455;BME280;25155;41.890;23.446;2023-02-23T12:05:05;91602.19;;;15.38;31.43
39455;BME280;25155;41.890;23.446;2023-02-23T12:07:36;91593.19;;;15.39;31.00
39455;BME280;25155;41.890;23.446;2023-02-23T12:10:12;91589.31;;;15.36;30.70
39455;BME280;25155;41.890;23.446;2023-02-23T12:12:50;91585.44;;;15.34;30.99
39455;BME280;25155;41.890;23.446;2023-02-23T12:15:26;91585.84;;;15.44;31.48
39455;BME280;25155;41.890;23.446;2023-02-23T12:17:57;91587.28;;;15.63;31.48
39455;BME280;25155;41.890;23.446;2023-02-23T12:20:29;91584.88;;;15.79;31.01
39455;BME280;25155;41.890;23.446;2023-02-23T12:23:02;91583.09;;;15.92;30.50
39455;BME280;25155;41.890;23.446;2023-02-23T12:25:36;91571.38;;;16.02;30.59
39455;BME280;25155;41.890;23.446;2023-02-23T12:28:09;91571.41;;;16.14;31.42
39455;BME280;25155;41.890;23.446;2023-02-23T12:30:42;91574.06;;;16.14;30.00
39455;BME280;25155;41.890;23.446;2023-02-23T12:33:16;91569.50;;;16.23;30.56
39455;BME280;25155;41.890;23.446;2023-02-23T12:35:54;91567.09;;;16.30;28.50
39455;BME280;25155;41.890;23.446;2023-02-23T12:38:28;91573.41;;;15.96;28.43
39455;BME280;25155;41.890;23.446;2023-02-23T12:41:03;91568.22;;;15.87;28.31
39455;BME280;25155;41.890;23.446;2023-02-23T12:43:38;91577.06;;;15.83;28.45
39455;BME280;25155;41.890;23.446;2023-02-23T12:46:10;91567.59;;;15.81;28.39
39455;BME280;25155;41.890;23.446;2023-02-23T12:48:47;91573.75;;;15.65;28.48
39455;BME280;25155;41.890;23.446;2023-02-23T12:51:24;91568.13;;;15.45;28.52
39455;BME280;25155;41.890;23.446;2023-02-23T12:53:54;91571.69;;;15.49;29.50
39455;BME280;25155;41.890;23.446;2023-02-23T12:56:31;91563.78;;;15.49;28.83
39455;BME280;25155;41.890;23.446;2023-02-23T12:59:10;91561.94;;;15.41;29.34
39455;BME280;25155;41.890;23.446;2023-02-23T13:01:45;91561.75;;;15.46;30.17
39455;BME280;25155;41.890;23.446;2023-02-23T13:04:26;91561.50;;;15.39;30.06
39455;BME280;25155;41.890;23.446;2023-02-23T13:07:06;91557.50;;;15.33;29.44
39455;BME280;25155;41.890;23.446;2023-02-23T13:09:44;91559.69;;;15.31;30.39
39455;BME280;25155;41.890;23.446;2023-02-23T13:12:27;91574.34;;;15.19;31.41
39455;BME280;25155;41.890;23.446;2023-02-23T13:15:02;91564.13;;;15.09;31.46
39455;BME280;25155;41.890;23.446;2023-02-23T13:17:39;91560.44;;;15.01;31.97
39455;BME280;25155;41.890;23.446;2023-02-23T13:20:16;91576.91;;;14.98;31.20
39455;BME280;25155;41.890;23.446;2023-02-23T13:22:49;91573.03;;;14.96;31.30
39455;BME280;25155;41.890;23.446;2023-02-23T13:25:28;91568.41;;;14.93;31.03
39455;BME280;25155;41.890;23.446;2023-02-23T13:27:59;91570.84;;;14.98;31.26
39455;BME280;25155;41.890;23.446;2023-02-23T13:30:29;91570.22;;;14.92;31.20
39455;BME280;25155;41.890;23.446;2023-02-23T13:32:58;91568.56;;;14.87;32.14
39455;BME280;25155;41.890;23.446;2023-02-23T13:35:32;91571.31;;;14.82;31.10
39455;BME280;25155;41.890;23.446;2023-02-23T13:38:11;91574.44;;;14.84;31.15
39455;BME280;25155;41.890;23.446;2023-02-23T13:40:45;91574.28;;;14.89;31.90
39455;BME280;25155;41.890;23.446;2023-02-23T13:43:18;91575.38;;;14.88;30.41
39455;BME280;25155;41.890;23.446;2023-02-23T13:45:54;91565.63;;;14.89;30.45
39455;BME280;25155;41.890;23.446;2023-02-23T13:48:33;91566.69;;;14.79;31.46